University Park Airport
KUNV : now visible

Airfield :











YOU CAN JOIN US ON...

 
LOGIN :

Register | Disclaimer

   EN    FR    IT 

 









Legend :    VFR   Marginal VFR   IFR   Intensive IFR   Very Intensive IFR
Visi :
Ceiling :
>= 8 km
>= 3000ft
5 to 8 km
1000 to 3000 ft
1500m to 5 km
500 to 1000 ft
800 to 1500m
200 to 500 ft
< 800m
< 200 ft
Symbols :   Thunderstorms  Fog  Heavy snow  Heavy precipitations  Wind > 20 kt






- Airport Elevation : 1239 ft


KUNV - University Park

CURRENT METAR :
  • 140816Z AUTO 20005KT 10SM CLR M02/M11 A3025 RMK AO2 T10231115

EXPIRED METARs :
  • 140756Z AUTO 20007KT 10SM CLR M02/M11 A3025 RMK AO2 T10251113
  • 140736Z AUTO 19006KT 10SM CLR M02/M11 A3026 RMK AO2 T10251112
  • 140718Z AUTO 19008KT 10SM CLR M03/M11 A3026 RMK AO2 T10261112
  • 140655Z AUTO 19007KT 10SM CLR M03/M11 A3027 RMK AO2 T10261111
  • 140636Z AUTO 19007KT 10SM CLR M02/M11 A3027 RMK AO2 T10251110
  • 140616Z AUTO 19007KT 10SM CLR M03/M11 A3027 RMK AO2 T10261106
  • 140557Z AUTO 20004KT 10SM CLR M03/M11 A3026 RMK AO2 T10271106
  • 140539Z AUTO 19006KT 10SM CLR M03/M11 A3027 RMK AO2 T10271106

TAF KUNV
Valid from the 14 at 06:00 until the 15 at 06:00 UTC


140520Z 1406/1506 19005KT P6SM SKC
FM141500 22007KT P6SM BKN250



MET'MAP, your aeronautical weather chart ! - Copyright ORBIFLY December 2007 - Disclaimer

ORBIFLY MET'MAP TEAM :

Programming & Development : Alexandra Zaïnal
Concept & Development : Baudouin d'Aumeries
Co-Development & Prog : Marc-Olivier Méhu
Technical & hardware support : Manuel Goepfert

Contact : metmap@orbifly.com




SOURCES & CREDITS :

   NOAA       Earth
Advisory